Tuxedo, New York
Current Conditions -  °F | °C
As of 7:53 AM on Wednesday 22 Oct 2014 (Local Time) from KFWN Reporting Station
Overcast Overcast  
Wind Chill: 53°   Ceiling: 1100
Heat Index: 53°   Visibility: 10mi
Dew Point: 49°   Wind: 9mph
Humidity: 86%   Direction: 50°NE
Pressure: 29.97"   Gusts: NA
Location:  41.1969°N, 74.224°W
Report Text: KFWN 221153Z AUTO 05008KT 10SM OVC011 12/09 A2997 RMK AO2 RAE07 SLP149 P0001 60013 70013 T01170094 10133 20117 53015
Loading
Personal Weather Stations






























Interactive Weather Map New forecast layout! Learn more

10-Day Weather Forecast

Advertisements
Track Severe Weather on mobile